createdAt,value
2019-03-15T00:00:32.454Z,7.90
2019-03-15T00:03:01.467Z,2.77
2019-03-15T00:05:31.121Z,5.07
2019-03-15T00:08:00.642Z,2.50
2019-03-15T00:10:30.079Z,2.80
2019-03-15T00:12:59.314Z,3.53
2019-03-15T00:15:28.661Z,8.73
2019-03-15T00:17:57.758Z,4.20
2019-03-15T00:20:27.705Z,5.70
2019-03-15T00:22:57.359Z,5.70
2019-03-15T00:25:26.681Z,5.33
2019-03-15T00:27:55.692Z,5.40
2019-03-15T00:30:25.035Z,4.73
2019-03-15T00:32:54.026Z,2.80
2019-03-15T00:35:23.068Z,4.67
2019-03-15T00:37:52.972Z,2.60
2019-03-15T00:40:22.287Z,4.73
2019-03-15T00:42:51.404Z,7.43
2019-03-15T00:45:20.653Z,4.93
2019-03-15T00:47:49.595Z,6.70
2019-03-15T00:50:18.824Z,9.83
2019-03-15T00:52:48.228Z,2.93
2019-03-15T00:55:17.564Z,4.43
2019-03-15T00:57:46.899Z,4.50
2019-03-15T01:00:15.929Z,2.90
2019-03-15T01:02:45.038Z,8.20
2019-03-15T01:05:13.996Z,5.93
2019-03-15T01:07:43.270Z,8.30
2019-03-15T01:10:12.338Z,3.63
2019-03-15T01:12:41.375Z,5.80
2019-03-15T01:15:11.105Z,7.70
2019-03-15T01:17:40.456Z,2.70
2019-03-15T01:20:10.070Z,3.77
2019-03-15T01:22:39.490Z,8.90
2019-03-15T01:25:09.151Z,5.57
2019-03-15T01:27:38.152Z,7.47
2019-03-15T01:30:07.692Z,4.00
2019-03-15T01:32:37.150Z,5.47
2019-03-15T01:35:06.479Z,5.27
2019-03-15T01:37:35.758Z,3.73
2019-03-15T01:40:05.001Z,1.70
2019-03-15T01:42:40.175Z,2.93
2019-03-15T01:45:09.976Z,3.33
2019-03-15T01:47:39.400Z,2.60
2019-03-15T01:50:08.657Z,2.53
2019-03-15T01:52:38.001Z,2.60
2019-03-15T01:55:07.553Z,3.30
2019-03-15T01:57:36.453Z,6.87
2019-03-15T02:00:05.881Z,2.67
2019-03-15T02:02:35.073Z,2.93
2019-03-15T02:05:04.260Z,3.77
2019-03-15T02:07:33.197Z,2.83
2019-03-15T02:10:03.090Z,3.57
2019-03-15T02:12:32.345Z,2.40
2019-03-15T02:15:01.303Z,6.00
2019-03-15T02:17:30.348Z,4.30
2019-03-15T02:19:59.243Z,8.17
2019-03-15T02:22:29.616Z,5.90
2019-03-15T02:24:58.872Z,4.10
2019-03-15T02:27:28.050Z,4.27
2019-03-15T02:29:57.213Z,9.50
2019-03-15T02:32:26.568Z,6.53
2019-03-15T02:34:56.108Z,13.00
2019-03-15T02:37:25.613Z,6.70
2019-03-15T02:39:54.832Z,6.60
2019-03-15T02:42:23.842Z,7.30
2019-03-15T02:44:52.782Z,5.73
2019-03-15T02:47:22.230Z,10.30
2019-03-15T02:49:51.139Z,5.80
2019-03-15T02:52:20.046Z,3.80
2019-03-15T02:54:49.240Z,3.60
2019-03-15T02:57:18.539Z,6.43
2019-03-15T02:59:47.754Z,5.27
2019-03-15T03:02:17.028Z,6.37
2019-03-15T03:04:46.022Z,5.60
2019-03-15T03:07:15.520Z,6.23
2019-03-15T03:09:44.858Z,4.97
2019-03-15T03:12:13.758Z,13.40
2019-03-15T03:14:42.762Z,3.97
2019-03-15T03:17:12.994Z,5.20
2019-03-15T03:19:42.636Z,10.93
2019-03-15T03:22:12.103Z,3.73
2019-03-15T03:24:41.050Z,3.83
2019-03-15T03:27:09.976Z,9.63
2019-03-15T03:29:39.117Z,4.70
2019-03-15T03:32:08.034Z,3.83
2019-03-15T03:34:37.301Z,3.20
2019-03-15T03:37:06.643Z,4.27
2019-03-15T03:39:35.817Z,4.50
2019-03-15T03:42:05.133Z,11.73
2019-03-15T03:44:34.371Z,14.27
2019-03-15T03:47:03.273Z,2.90
2019-03-15T03:49:32.164Z,3.90
2019-03-15T03:52:01.098Z,8.83
2019-03-15T03:54:30.649Z,6.43
2019-03-15T03:56:59.887Z,5.03
2019-03-15T03:59:29.075Z,6.50
2019-03-15T04:01:58.337Z,14.30
2019-03-15T04:04:27.250Z,5.57
2019-03-15T04:06:56.816Z,11.73
2019-03-15T04:09:26.112Z,9.23
2019-03-15T04:11:56.224Z,7.40
2019-03-15T04:14:25.607Z,4.60
2019-03-15T04:16:54.593Z,2.80
2019-03-15T04:19:24.658Z,11.60
2019-03-15T04:21:53.715Z,17.03
2019-03-15T04:24:22.707Z,4.60
2019-03-15T04:26:51.909Z,9.30
2019-03-15T04:29:21.130Z,7.70
2019-03-15T04:31:50.676Z,11.63
2019-03-15T04:34:19.694Z,10.80
2019-03-15T04:36:48.887Z,5.63
2019-03-15T04:39:18.492Z,8.50
2019-03-15T04:41:47.387Z,3.00
2019-03-15T04:44:16.626Z,7.20
2019-03-15T04:46:46.100Z,11.77
2019-03-15T04:49:15.278Z,9.77
2019-03-15T04:51:44.537Z,9.33
2019-03-15T04:54:13.753Z,7.77
2019-03-15T04:56:42.688Z,8.07
2019-03-15T04:59:12.332Z,9.60
2019-03-15T05:01:41.550Z,7.67
2019-03-15T05:04:10.877Z,4.10
2019-03-15T05:06:40.041Z,5.50
2019-03-15T05:09:09.205Z,13.73
2019-03-15T05:11:38.136Z,4.80
2019-03-15T05:14:07.313Z,8.83
2019-03-15T05:16:36.482Z,6.20
2019-03-15T05:19:05.402Z,4.90
2019-03-15T05:21:34.931Z,18.30
2019-03-15T05:24:04.036Z,4.67
2019-03-15T05:26:33.550Z,7.23
2019-03-15T05:29:02.805Z,8.30
2019-03-15T05:31:32.333Z,5.13
2019-03-15T05:34:01.536Z,5.40
2019-03-15T05:36:30.768Z,11.87
2019-03-15T05:39:00.095Z,12.80
2019-03-15T05:41:29.656Z,3.67
2019-03-15T05:43:58.909Z,8.63
2019-03-15T05:46:28.145Z,6.80
2019-03-15T05:48:57.045Z,3.60
2019-03-15T05:51:27.147Z,8.50
2019-03-15T05:53:56.660Z,5.33
2019-03-15T05:56:25.948Z,6.93
2019-03-15T05:58:55.439Z,7.77
2019-03-15T06:01:24.738Z,13.30
2019-03-15T06:03:54.008Z,7.60
2019-03-15T06:06:23.614Z,6.83
2019-03-15T06:08:52.823Z,3.70
2019-03-15T06:11:21.868Z,8.80
2019-03-15T06:13:51.315Z,16.40
2019-03-15T06:16:24.213Z,17.60
2019-03-15T06:18:54.513Z,8.13
2019-03-15T06:21:23.760Z,19.03
2019-03-15T06:23:53.166Z,16.10
2019-03-15T06:26:22.219Z,12.20
2019-03-15T06:28:51.416Z,11.63
2019-03-15T06:31:20.590Z,13.43
2019-03-15T06:33:49.757Z,5.90
2019-03-15T06:36:19.280Z,17.70
2019-03-15T06:38:49.031Z,11.20
2019-03-15T06:41:18.301Z,11.73
2019-03-15T06:43:48.068Z,13.23
2019-03-15T06:46:17.114Z,11.27
2019-03-15T06:48:46.495Z,13.20
2019-03-15T06:51:15.820Z,20.23
2019-03-15T06:53:47.768Z,19.00
2019-03-15T06:56:16.080Z,14.27
2019-03-15T06:58:45.302Z,13.03
2019-03-15T07:01:14.654Z,16.93
2019-03-15T07:03:44.224Z,7.23
2019-03-15T07:06:14.360Z,12.70
2019-03-15T07:08:44.323Z,13.50
2019-03-15T07:11:13.579Z,12.33
2019-03-15T07:13:42.813Z,11.63
2019-03-15T07:16:12.036Z,15.50
2019-03-15T07:18:40.988Z,12.90
2019-03-15T07:21:10.206Z,8.13
2019-03-15T07:23:39.927Z,8.13
2019-03-15T07:26:09.766Z,11.70
2019-03-15T07:28:39.141Z,9.60
2019-03-15T07:31:08.781Z,5.83
2019-03-15T07:33:38.599Z,5.63
2019-03-15T07:36:07.854Z,9.00
2019-03-15T07:38:37.046Z,7.20
2019-03-15T07:41:06.304Z,11.23
2019-03-15T13:48:40.202Z,3.77
2019-03-15T13:51:10.015Z,1.20
2019-03-15T13:53:40.173Z,1.10
2019-03-15T13:56:09.914Z,1.57
2019-03-15T13:58:56.282Z,0.90
2019-03-15T14:01:15.170Z,4.20
2019-03-15T14:03:44.994Z,1.30
2019-03-15T14:06:14.667Z,4.73
2019-03-15T14:08:46.428Z,3.43
2019-03-15T14:11:17.399Z,0.97
2019-03-15T14:13:46.750Z,6.10
2019-03-15T14:16:17.313Z,1.83
2019-03-15T14:18:46.543Z,1.13
2019-03-15T14:21:16.268Z,1.40
2019-03-15T14:23:45.522Z,2.27
2019-03-15T14:26:15.218Z,1.40
2019-03-15T14:28:45.341Z,1.10
2019-03-15T14:31:14.991Z,1.67
2019-03-15T14:33:45.529Z,1.23
2019-03-15T14:36:15.306Z,1.47
2019-03-15T14:38:45.479Z,1.10
2019-03-15T14:41:14.700Z,1.17
2019-03-15T14:43:44.084Z,2.03
2019-03-15T14:46:13.729Z,1.10
2019-03-15T14:48:43.301Z,1.87
2019-03-15T14:51:13.036Z,1.57
2019-03-15T14:53:42.302Z,0.90
2019-03-15T14:56:12.738Z,3.10
2019-03-15T14:58:42.728Z,1.20
2019-03-15T15:01:12.497Z,1.63
2019-03-15T15:03:41.638Z,1.20
2019-03-15T15:06:10.870Z,1.57
2019-03-15T15:08:40.428Z,2.40
2019-03-15T15:11:12.818Z,2.83
2019-03-15T15:13:43.080Z,1.97
2019-03-15T15:16:14.017Z,13.27
2019-03-15T15:18:43.278Z,1.83
2019-03-15T15:21:13.277Z,1.50
2019-03-15T15:23:42.970Z,3.93
2019-03-15T15:26:14.077Z,1.80
2019-03-15T15:28:44.007Z,3.93
2019-03-15T15:31:14.345Z,2.87
2019-03-15T15:33:44.573Z,1.20
2019-03-15T15:36:14.625Z,1.17
2019-03-15T15:38:45.034Z,3.10
2019-03-15T15:41:14.847Z,1.23
2019-03-15T15:43:44.304Z,1.30
2019-03-15T15:46:14.334Z,1.73
2019-03-15T15:48:44.425Z,1.10
2019-03-15T15:51:14.716Z,1.00
2019-03-15T15:53:44.187Z,1.60
2019-03-15T15:56:14.550Z,1.90
2019-03-15T15:58:44.863Z,1.10
2019-03-15T16:01:16.723Z,1.40
2019-03-15T16:03:47.559Z,1.53
2019-03-15T16:06:17.894Z,2.70
2019-03-15T16:08:48.160Z,2.50
2019-03-15T16:11:18.858Z,5.00
2019-03-15T16:13:48.672Z,2.20
2019-03-15T16:16:18.137Z,1.23
2019-03-15T16:18:52.785Z,1.30
2019-03-15T16:21:22.941Z,1.10
2019-03-15T16:23:52.202Z,3.50
2019-03-15T16:26:22.199Z,2.40
2019-03-15T16:28:51.443Z,1.90
2019-03-15T16:31:21.079Z,1.50
2019-03-15T16:33:51.244Z,1.20
2019-03-15T16:36:21.336Z,3.87
2019-03-15T16:38:52.486Z,1.20
2019-03-15T16:41:21.618Z,1.60
2019-03-15T16:43:52.361Z,2.23
2019-03-15T16:46:21.803Z,2.70
2019-03-15T16:48:52.470Z,1.20
2019-03-15T16:51:22.101Z,2.73
2019-03-15T16:53:52.174Z,1.53
2019-03-15T16:56:22.030Z,4.23
2019-03-15T16:58:51.301Z,1.97
2019-03-15T17:01:21.994Z,4.80
2019-03-15T17:03:51.243Z,7.83
2019-03-15T17:06:20.995Z,1.70
2019-03-15T17:08:50.476Z,1.80
2019-03-15T17:11:19.677Z,1.03
2019-03-15T17:13:50.137Z,1.00
2019-03-15T17:16:19.645Z,4.43
2019-03-15T17:18:49.404Z,6.77
2019-03-15T17:21:19.299Z,2.50
2019-03-15T17:23:48.977Z,3.43
2019-03-15T17:26:18.789Z,5.53
2019-03-15T17:28:58.002Z,3.97
2019-03-15T17:31:19.152Z,1.00
2019-03-15T17:33:49.119Z,1.50
2019-03-15T17:36:19.300Z,3.67
2019-03-15T17:38:49.196Z,2.80
2019-03-15T17:41:18.579Z,2.80
2019-03-15T17:43:48.322Z,1.50
2019-03-15T17:46:18.661Z,1.63
2019-03-15T17:48:47.773Z,2.80
2019-03-15T17:51:20.713Z,1.63
2019-03-15T17:53:49.958Z,2.47
2019-03-15T17:56:19.507Z,3.20
2019-03-15T17:58:49.729Z,1.37
2019-03-15T18:01:19.055Z,3.13
2019-03-15T18:03:49.037Z,2.33
2019-03-15T18:06:18.800Z,4.50
2019-03-15T18:08:49.409Z,1.80
2019-03-15T18:11:18.618Z,1.50
2019-03-15T18:13:49.289Z,2.00
2019-03-15T18:16:19.636Z,1.87
2019-03-15T18:18:48.845Z,1.33
2019-03-15T18:21:19.349Z,2.50
2019-03-15T18:23:49.327Z,5.30
2019-03-15T18:26:19.537Z,1.77
2019-03-15T18:28:48.699Z,1.00
2019-03-15T18:31:20.140Z,1.20
2019-03-15T18:33:49.814Z,2.50
2019-03-15T18:36:19.492Z,1.50
2019-03-15T18:38:48.960Z,1.63
2019-03-15T18:41:18.575Z,1.40
2019-03-15T18:43:47.640Z,1.47
2019-03-15T18:46:17.562Z,2.70
2019-03-15T18:48:46.714Z,1.40
2019-03-15T18:51:16.236Z,6.60
2019-03-15T18:53:45.542Z,8.23
2019-03-15T18:56:15.867Z,1.40
2019-03-15T18:58:46.082Z,1.37
2019-03-15T19:01:16.153Z,1.87
2019-03-15T19:03:45.761Z,1.20
2019-03-15T19:06:14.882Z,1.23
2019-03-15T19:08:44.492Z,5.33
2019-03-15T19:11:14.195Z,1.40
2019-03-15T19:13:43.605Z,1.50
2019-03-15T19:16:20.010Z,1.60
2019-03-15T19:18:44.954Z,2.03
2019-03-15T19:21:13.914Z,2.30
2019-03-15T19:23:43.488Z,2.33
2019-03-15T19:26:13.278Z,1.17
2019-03-15T19:28:43.966Z,1.17
2019-03-15T19:31:13.918Z,3.37
2019-03-15T19:33:43.592Z,1.87
2019-03-15T19:36:14.396Z,1.10
2019-03-15T19:38:43.535Z,1.10
2019-03-15T19:41:12.846Z,2.70
2019-03-15T19:43:43.246Z,2.70
2019-03-15T23:19:42.145Z,3.33
2019-03-15T23:22:12.211Z,0.90
2019-03-15T23:24:41.891Z,1.10
2019-03-15T23:27:10.963Z,1.00
2019-03-15T23:29:40.190Z,1.13
2019-03-15T23:32:09.781Z,2.60
2019-03-15T23:34:39.206Z,1.70
2019-03-15T23:37:08.903Z,1.03
2019-03-15T23:39:38.199Z,1.17
2019-03-15T23:42:07.469Z,1.20
2019-03-15T23:44:36.785Z,1.00
2019-03-15T23:47:06.406Z,1.57
2019-03-15T23:49:35.650Z,1.10
2019-03-15T23:52:04.602Z,1.17
2019-03-15T23:54:34.014Z,1.00
2019-03-15T23:57:03.237Z,2.37
2019-03-15T23:59:32.410Z,0.90
